createdAt,value
2018-06-13T00:01:43.045Z,18.10
2018-06-13T00:04:12.932Z,18.11
2018-06-13T00:06:42.874Z,18.14
2018-06-13T00:09:13.473Z,18.25
2018-06-13T00:11:43.792Z,18.29
2018-06-13T00:14:13.603Z,18.33
2018-06-13T00:16:43.729Z,18.20
2018-06-13T00:19:13.450Z,18.14
2018-06-13T00:21:43.381Z,18.09
2018-06-13T00:24:13.643Z,18.09
2018-06-13T00:26:43.481Z,18.10
2018-06-13T00:29:13.015Z,18.02
2018-06-13T00:31:43.356Z,18.02
2018-06-13T00:40:21.220Z,18.08
2018-06-13T00:42:51.335Z,18.00
2018-06-13T00:45:21.206Z,17.99
2018-06-13T00:47:51.350Z,17.97
2018-06-13T00:50:21.696Z,18.05
2018-06-13T00:52:52.299Z,18.08
2018-06-13T00:55:22.383Z,17.92
2018-06-13T00:57:52.482Z,17.96
2018-06-13T01:00:22.742Z,17.82
2018-06-13T01:02:53.015Z,17.75
2018-06-13T01:05:23.231Z,17.74
2018-06-13T01:07:53.325Z,17.77
2018-06-13T01:10:23.336Z,17.70
2018-06-13T01:12:53.164Z,17.78
2018-06-13T01:15:23.085Z,17.76
2018-06-13T01:17:53.118Z,17.68
2018-06-13T01:20:23.089Z,17.69
2018-06-13T01:22:53.162Z,17.64
2018-06-13T01:25:23.049Z,17.63
2018-06-13T01:27:52.986Z,17.70
2018-06-13T01:30:23.299Z,17.82
2018-06-13T01:32:53.308Z,17.72
2018-06-13T01:35:23.166Z,17.78
2018-06-13T01:37:53.354Z,17.83
2018-06-13T01:40:23.603Z,17.75
2018-06-13T01:42:53.496Z,17.75
2018-06-13T01:45:23.540Z,17.82
2018-06-13T01:47:53.632Z,17.88
2018-06-13T01:50:23.791Z,17.89
2018-06-13T01:52:53.915Z,17.92
2018-06-13T01:55:23.885Z,18.00
2018-06-13T01:57:53.954Z,18.09
2018-06-13T02:00:23.765Z,17.96
2018-06-13T02:02:53.831Z,17.96
2018-06-13T02:05:23.880Z,17.97
2018-06-13T02:07:53.894Z,18.03
2018-06-13T02:10:23.878Z,18.08
2018-06-13T02:12:53.938Z,18.19
2018-06-13T02:15:23.964Z,18.05
2018-06-13T02:17:54.090Z,18.12
2018-06-13T02:20:24.113Z,17.91
2018-06-13T02:22:54.328Z,17.90
2018-06-13T02:25:24.398Z,17.87
2018-06-13T02:27:54.319Z,17.89
2018-06-13T02:30:24.800Z,18.01
2018-06-13T02:32:55.104Z,17.95
2018-06-13T02:35:24.999Z,17.91
2018-06-13T02:37:55.108Z,17.92
2018-06-13T02:40:25.301Z,17.89
2018-06-13T02:42:55.251Z,17.80
2018-06-13T02:45:25.010Z,17.74
2018-06-13T02:47:55.199Z,17.70
2018-06-13T02:50:25.436Z,17.71
2018-06-13T02:52:55.367Z,17.74
2018-06-13T02:55:25.280Z,17.67
2018-06-13T02:57:55.282Z,17.50
2018-06-13T03:00:25.381Z,17.48
2018-06-13T03:02:55.458Z,17.37
2018-06-13T03:05:25.890Z,17.37
2018-06-13T03:07:56.085Z,17.38
2018-06-13T03:10:26.184Z,17.42
2018-06-13T03:12:56.155Z,17.26
2018-06-13T03:15:26.000Z,17.37
2018-06-13T03:17:55.740Z,17.32
2018-06-13T03:20:25.834Z,17.35
2018-06-13T03:22:55.645Z,17.43
2018-06-13T03:25:25.386Z,17.23
2018-06-13T03:27:55.283Z,17.21
2018-06-13T03:30:25.225Z,17.13
2018-06-13T03:32:55.159Z,16.94
2018-06-13T03:35:24.795Z,16.92
2018-06-13T03:37:55.727Z,16.93
2018-06-13T03:40:25.521Z,16.92
2018-06-13T03:42:55.209Z,16.98
2018-06-13T03:45:25.108Z,17.08
2018-06-13T03:47:55.775Z,17.09
2018-06-13T03:50:25.641Z,17.16
2018-06-13T03:52:55.487Z,17.15
2018-06-13T03:55:25.716Z,17.10
2018-06-13T03:57:55.485Z,17.08
2018-06-13T04:00:26.154Z,16.80
2018-06-13T04:02:56.295Z,17.08
2018-06-13T04:05:28.639Z,17.55
2018-06-13T04:07:58.584Z,18.12
2018-06-13T04:10:28.610Z,18.34
2018-06-13T04:12:58.965Z,18.17
2018-06-13T04:15:29.154Z,18.18
2018-06-13T04:17:59.075Z,18.30
2018-06-13T04:20:28.991Z,18.03
2018-06-13T04:22:59.740Z,17.88
2018-06-13T04:25:29.535Z,17.82
2018-06-13T04:28:00.174Z,17.58
2018-06-13T04:30:31.131Z,17.17
2018-06-13T04:33:01.546Z,17.40
2018-06-13T04:35:32.652Z,17.52
2018-06-13T04:38:02.590Z,17.50
2018-06-13T04:40:33.536Z,17.45
2018-06-13T04:43:03.382Z,17.35
2018-06-13T04:45:34.094Z,17.26
2018-06-13T04:48:03.927Z,17.22
2018-06-13T04:50:33.935Z,17.15
2018-06-13T04:53:04.174Z,17.16
2018-06-13T04:55:34.110Z,17.21
2018-06-13T04:58:04.171Z,17.35
2018-06-13T05:00:34.002Z,17.14
2018-06-13T05:03:04.052Z,17.08
2018-06-13T05:05:34.254Z,17.02
2018-06-13T05:08:04.229Z,17.13
2018-06-13T05:10:34.172Z,17.16
2018-06-13T05:13:04.275Z,17.08
2018-06-13T05:15:34.746Z,17.02
2018-06-13T05:18:04.756Z,17.05
2018-06-13T05:20:34.725Z,17.18
2018-06-13T05:23:04.445Z,17.07
2018-06-13T05:25:34.759Z,17.14
2018-06-13T05:28:04.856Z,17.21
2018-06-13T05:30:35.062Z,17.18
2018-06-13T05:33:05.034Z,17.10
2018-06-13T05:35:34.900Z,17.02
2018-06-13T05:38:05.290Z,16.90
2018-06-13T05:40:35.191Z,16.91
2018-06-13T05:43:05.242Z,16.97
2018-06-13T05:45:34.810Z,16.99
2018-06-13T05:48:05.065Z,16.65
2018-06-13T05:50:35.044Z,16.56
2018-06-13T05:53:04.932Z,16.63
2018-06-13T05:55:35.218Z,16.61
2018-06-13T05:58:05.386Z,16.60
2018-06-13T06:00:35.464Z,16.78
2018-06-13T06:03:05.682Z,16.55
2018-06-13T06:05:35.477Z,16.63
2018-06-13T06:08:06.011Z,16.86
2018-06-13T06:10:36.243Z,16.94
2018-06-13T06:13:06.499Z,16.95
2018-06-13T06:15:36.466Z,16.93
2018-06-13T06:18:06.792Z,17.08
2018-06-13T06:20:36.442Z,17.04
2018-06-13T06:23:06.474Z,17.11
2018-06-13T06:25:36.509Z,16.94
2018-06-13T06:28:06.760Z,16.91
2018-06-13T06:30:36.702Z,16.99
2018-06-13T06:33:07.192Z,16.95
2018-06-13T06:35:37.316Z,16.95
2018-06-13T06:38:07.456Z,17.11
2018-06-13T06:40:37.802Z,17.44
2018-06-13T06:43:07.961Z,17.60
2018-06-13T06:45:38.016Z,17.57
2018-06-13T06:48:07.825Z,17.74
2018-06-13T06:50:37.566Z,17.78
2018-06-13T06:53:07.674Z,17.73
2018-06-13T06:55:37.649Z,17.53
2018-06-13T06:58:07.618Z,17.55
2018-06-13T07:00:37.580Z,17.41
2018-06-13T07:03:07.736Z,17.46
2018-06-13T07:05:38.327Z,17.41
2018-06-13T07:08:08.816Z,17.58
2018-06-13T07:10:39.957Z,17.34
2018-06-13T07:13:10.248Z,17.12
2018-06-13T07:15:40.631Z,17.15
2018-06-13T07:18:11.206Z,17.28
2018-06-13T07:20:42.591Z,17.54
2018-06-13T07:23:12.888Z,17.61
2018-06-13T07:25:43.022Z,17.51
2018-06-13T07:28:13.065Z,17.59
2018-06-13T07:30:44.348Z,17.66
2018-06-13T07:33:14.983Z,17.91
2018-06-13T07:35:45.142Z,17.78
2018-06-13T07:38:15.667Z,17.55
2018-06-13T07:40:46.196Z,17.47
2018-06-13T07:43:16.438Z,17.39
2018-06-13T07:45:47.216Z,17.56
2018-06-13T07:48:17.833Z,17.56
2018-06-13T07:50:48.597Z,17.71
2018-06-13T07:53:18.538Z,17.71
2018-06-13T07:55:49.352Z,17.95
2018-06-13T07:58:19.526Z,18.04
2018-06-13T08:00:50.706Z,18.15
2018-06-13T08:03:20.749Z,18.18
2018-06-13T08:05:51.725Z,18.23
2018-06-13T08:08:21.714Z,18.46
2018-06-13T08:10:52.448Z,18.50
2018-06-13T08:13:22.600Z,18.50
2018-06-13T08:15:52.742Z,18.47
2018-06-13T08:18:23.052Z,18.39
2018-06-13T08:20:54.453Z,18.54
2018-06-13T08:23:24.805Z,18.61
2018-06-13T08:25:54.711Z,18.63
2018-06-13T08:28:24.955Z,18.44
2018-06-13T08:30:55.187Z,18.26
2018-06-13T08:33:25.487Z,18.03
2018-06-13T08:35:55.682Z,17.99
2018-06-13T08:38:25.907Z,18.04
2018-06-13T08:40:56.088Z,18.11
2018-06-13T08:43:26.113Z,18.05
2018-06-13T08:45:56.407Z,17.76
2018-06-13T08:48:26.402Z,17.70
2018-06-13T08:50:56.307Z,17.84
2018-06-13T08:53:26.182Z,17.95
2018-06-13T08:55:56.517Z,17.99
2018-06-13T08:58:26.432Z,18.12
2018-06-13T09:00:56.800Z,18.17
2018-06-13T09:03:26.788Z,17.97
2018-06-13T09:05:56.873Z,18.10
2018-06-13T09:08:26.960Z,18.09
2018-06-13T09:10:57.101Z,18.04
2018-06-13T09:13:27.107Z,18.15
2018-06-13T09:15:57.412Z,18.02
2018-06-13T09:18:27.414Z,17.76
2018-06-13T09:20:57.326Z,17.80
2018-06-13T09:23:27.336Z,17.76
2018-06-13T09:25:57.482Z,17.86
2018-06-13T09:28:27.620Z,17.80
2018-06-13T09:30:57.416Z,17.87
2018-06-13T09:33:27.969Z,17.81
2018-06-13T09:35:58.408Z,17.84
2018-06-13T09:38:28.689Z,17.87
2018-06-13T09:40:58.638Z,17.82
2018-06-13T09:43:28.686Z,17.95
2018-06-13T09:46:03.399Z,17.99
2018-06-13T09:48:29.132Z,18.04
2018-06-13T09:50:59.272Z,18.20
2018-06-13T09:53:29.497Z,18.11
2018-06-13T09:55:59.676Z,18.10
2018-06-13T09:58:33.882Z,17.98
2018-06-13T10:01:08.892Z,17.98
2018-06-13T10:03:39.262Z,18.02
2018-06-13T10:06:09.325Z,18.25
2018-06-13T10:08:39.543Z,18.36
2018-06-13T10:11:09.818Z,18.53
2018-06-13T10:13:39.852Z,18.47
2018-06-13T10:16:09.812Z,18.57
2018-06-13T10:18:39.654Z,18.68
2018-06-13T10:21:10.113Z,18.80
2018-06-13T10:23:40.452Z,18.73
2018-06-13T10:26:11.200Z,18.81
2018-06-13T10:28:41.249Z,18.86
2018-06-13T10:31:11.471Z,18.73
2018-06-13T10:33:41.745Z,18.91
2018-06-13T10:36:11.783Z,18.86
2018-06-13T10:38:41.913Z,19.02
2018-06-13T10:41:12.139Z,18.87
2018-06-13T10:43:42.386Z,19.01
2018-06-13T10:46:12.451Z,18.99
2018-06-13T10:48:42.601Z,19.01
2018-06-13T10:51:12.973Z,19.01
2018-06-13T10:53:42.957Z,19.10
2018-06-13T10:56:13.083Z,19.03
2018-06-13T10:58:43.062Z,19.09
2018-06-13T11:01:12.986Z,19.15
2018-06-13T11:03:42.856Z,18.93
2018-06-13T11:06:13.712Z,18.80
2018-06-13T11:08:44.137Z,18.69
2018-06-13T11:11:14.262Z,18.48
2018-06-13T11:13:44.478Z,18.56
2018-06-13T11:16:14.692Z,18.37
2018-06-13T11:18:44.715Z,18.45
2018-06-13T11:21:15.188Z,18.44
2018-06-13T11:23:45.286Z,18.49
2018-06-13T11:26:15.499Z,18.51
2018-06-13T11:28:45.926Z,18.39
2018-06-13T11:31:16.026Z,18.18
2018-06-13T11:33:46.079Z,18.29
2018-06-13T11:36:16.250Z,18.43
2018-06-13T11:38:46.672Z,18.49
2018-06-13T11:41:16.929Z,18.73
2018-06-13T11:43:46.976Z,18.88
2018-06-13T11:46:17.232Z,18.75
2018-06-13T11:48:47.313Z,18.75
2018-06-13T11:51:17.582Z,18.87
2018-06-13T11:53:47.609Z,18.93
2018-06-13T11:56:17.884Z,19.16
2018-06-13T11:58:48.054Z,19.31
2018-06-13T12:01:18.237Z,19.53
2018-06-13T12:03:48.641Z,19.66
2018-06-13T12:06:18.743Z,19.75
2018-06-13T12:08:49.072Z,19.81
2018-06-13T12:11:19.224Z,19.74
2018-06-13T12:13:49.344Z,19.77
2018-06-13T12:16:19.393Z,19.80
2018-06-13T12:18:49.624Z,19.92
2018-06-13T12:21:19.968Z,20.00
2018-06-13T12:23:50.255Z,19.76
2018-06-13T12:26:20.321Z,19.89
2018-06-13T12:28:50.517Z,19.84
2018-06-13T12:31:20.554Z,19.96
2018-06-13T12:33:50.852Z,20.10
2018-06-13T12:36:21.096Z,20.21
2018-06-13T12:38:51.303Z,20.26
2018-06-13T12:41:21.454Z,20.25
2018-06-13T12:43:51.198Z,20.01
2018-06-13T12:46:21.367Z,20.02
2018-06-13T12:48:51.128Z,19.86
2018-06-13T12:51:21.185Z,19.76
2018-06-13T12:53:51.667Z,19.73
2018-06-13T12:56:22.614Z,19.85
2018-06-13T12:58:52.953Z,19.92
2018-06-13T13:01:23.164Z,19.86
2018-06-13T13:03:53.368Z,19.73
2018-06-13T13:06:23.244Z,19.69
2018-06-13T13:08:53.254Z,19.60
2018-06-13T13:11:23.390Z,19.55
2018-06-13T13:13:54.167Z,19.52
2018-06-13T13:16:24.299Z,19.72
2018-06-13T13:18:54.357Z,19.79
2018-06-13T13:21:24.487Z,19.88
2018-06-13T13:23:54.946Z,19.95
2018-06-13T13:26:25.212Z,20.08
2018-06-13T13:28:55.610Z,20.15
2018-06-13T13:31:25.875Z,19.85
2018-06-13T13:33:55.936Z,19.96
2018-06-13T13:36:26.057Z,20.09
2018-06-13T13:38:56.254Z,20.62
2018-06-13T13:41:26.290Z,20.66
2018-06-13T13:43:56.592Z,20.37
2018-06-13T13:46:26.722Z,20.41
2018-06-13T13:48:56.894Z,20.38
2018-06-13T13:51:27.138Z,20.48
2018-06-13T13:53:57.212Z,20.36
2018-06-13T13:56:27.493Z,20.41
2018-06-13T13:58:57.731Z,20.47
2018-06-13T14:01:27.828Z,20.56
2018-06-13T14:03:58.068Z,20.44
2018-06-13T14:06:28.195Z,20.52
2018-06-13T14:08:58.297Z,20.56
2018-06-13T14:11:28.620Z,20.53
2018-06-13T14:13:58.657Z,20.49
2018-06-13T14:16:28.994Z,20.58
2018-06-13T14:18:59.319Z,20.76
2018-06-13T14:21:30.173Z,21.27
2018-06-13T14:24:00.469Z,21.63
2018-06-13T14:26:30.773Z,22.01
2018-06-13T14:29:00.885Z,22.11
2018-06-13T14:31:31.218Z,22.21
2018-06-13T14:34:01.238Z,21.83
2018-06-13T14:36:31.718Z,21.72
2018-06-13T14:39:02.091Z,21.38
2018-06-13T14:41:32.282Z,21.41
2018-06-13T14:44:03.129Z,21.50
2018-06-13T14:46:33.505Z,21.71
2018-06-13T14:49:03.218Z,21.66
2018-06-13T14:51:33.742Z,21.48
2018-06-13T14:54:03.872Z,21.31
2018-06-13T14:56:34.550Z,21.25
2018-06-13T14:59:04.698Z,21.12
2018-06-13T15:01:34.911Z,21.33
2018-06-13T15:04:05.583Z,21.39
2018-06-13T15:06:35.754Z,21.22
2018-06-13T15:09:09.651Z,21.42
2018-06-13T15:11:40.648Z,21.65
2018-06-13T15:14:11.211Z,21.91
2018-06-13T15:16:41.339Z,22.06
2018-06-13T15:19:11.670Z,22.47
2018-06-13T15:21:41.806Z,22.78
2018-06-13T15:24:12.018Z,22.94
2018-06-13T15:26:42.225Z,23.01
2018-06-13T15:29:12.654Z,22.84
2018-06-13T15:31:42.697Z,23.07
2018-06-13T15:34:13.003Z,23.14
2018-06-13T15:36:43.148Z,22.93
2018-06-13T15:39:15.085Z,22.92
2018-06-13T15:41:45.890Z,22.96
2018-06-13T15:44:16.635Z,23.05
2018-06-13T15:46:46.807Z,23.05
2018-06-13T15:49:16.946Z,22.48
2018-06-13T15:51:47.093Z,22.34
2018-06-13T15:54:18.100Z,21.93
2018-06-13T15:56:48.309Z,21.52
2018-06-13T15:59:18.578Z,21.10
2018-06-13T16:01:49.053Z,20.91
2018-06-13T16:04:19.564Z,20.77
2018-06-13T16:06:50.246Z,20.64
2018-06-13T16:09:20.474Z,20.56
2018-06-13T16:11:50.753Z,20.74
2018-06-13T16:14:21.128Z,20.95
2018-06-13T16:16:52.086Z,21.21
2018-06-13T16:19:22.305Z,20.78
2018-06-13T16:21:53.011Z,20.63
2018-06-13T16:24:23.520Z,20.88
2018-06-13T16:26:53.913Z,21.02
2018-06-13T16:29:25.168Z,20.64
2018-06-13T16:31:55.191Z,20.40
2018-06-13T16:34:25.562Z,20.10
2018-06-13T16:36:56.097Z,19.77
2018-06-13T16:39:26.183Z,19.80
2018-06-13T16:41:56.596Z,19.84
2018-06-13T16:44:27.010Z,19.83
2018-06-13T16:46:57.261Z,19.98
2018-06-13T16:49:27.318Z,20.19
2018-06-13T16:51:58.641Z,20.23
2018-06-13T16:54:39.084Z,20.35
2018-06-13T16:57:09.630Z,20.07
2018-06-13T16:59:39.840Z,20.20
2018-06-13T17:02:10.101Z,20.03
2018-06-13T17:04:40.544Z,19.96
2018-06-13T17:07:10.807Z,19.73
2018-06-13T17:09:40.906Z,19.80
2018-06-13T17:12:11.130Z,20.11
2018-06-13T17:14:41.629Z,20.41
2018-06-13T17:17:12.390Z,20.35
2018-06-13T17:19:42.701Z,20.21
2018-06-13T17:22:13.092Z,20.25
2018-06-13T17:24:43.084Z,20.22
2018-06-13T17:27:13.208Z,20.33
2018-06-13T17:29:43.268Z,20.45
2018-06-13T17:32:13.590Z,20.34
2018-06-13T17:34:43.633Z,20.24
2018-06-13T17:37:13.859Z,20.20
2018-06-13T17:39:43.984Z,20.24
2018-06-13T17:42:14.224Z,20.08
2018-06-13T17:44:44.520Z,20.01
2018-06-13T17:47:15.731Z,19.81
2018-06-13T17:49:46.156Z,19.86
2018-06-13T17:52:16.336Z,19.77
2018-06-13T17:54:46.662Z,19.93
2018-06-13T17:57:17.383Z,19.80
2018-06-13T17:59:48.527Z,19.86
2018-06-13T18:02:19.386Z,19.73
2018-06-13T18:04:49.854Z,19.59
2018-06-13T18:07:20.651Z,19.60
2018-06-13T18:09:51.158Z,19.57
2018-06-13T18:12:21.536Z,19.58
2018-06-13T18:14:51.910Z,19.62
2018-06-13T18:17:22.313Z,19.72
2018-06-13T18:19:53.115Z,19.79
2018-06-13T18:22:23.309Z,19.88
2018-06-13T18:24:53.495Z,19.96
2018-06-13T18:27:23.755Z,19.97
2018-06-13T18:29:53.910Z,19.96
2018-06-13T18:32:24.340Z,19.99
2018-06-13T18:34:54.728Z,19.93
2018-06-13T18:37:25.328Z,19.85
2018-06-13T18:39:55.738Z,19.81
2018-06-13T18:42:25.934Z,19.82
2018-06-13T18:44:56.069Z,19.84
2018-06-13T18:47:26.108Z,19.83
2018-06-13T18:49:56.438Z,19.79
2018-06-13T18:52:26.705Z,19.81
2018-06-13T18:54:56.739Z,19.75
2018-06-13T18:57:27.012Z,19.76
2018-06-13T18:59:57.151Z,19.79
2018-06-13T19:02:27.539Z,19.75
2018-06-13T19:04:58.185Z,19.73
2018-06-13T19:07:28.598Z,19.76
2018-06-13T19:09:59.238Z,19.83
2018-06-13T19:12:29.485Z,19.85
2018-06-13T19:14:59.567Z,19.88
2018-06-13T19:17:29.961Z,19.82
2018-06-13T19:20:00.137Z,19.72
2018-06-13T19:22:30.419Z,19.70
2018-06-13T19:25:00.643Z,19.70
2018-06-13T19:27:30.823Z,19.60
2018-06-13T19:30:01.517Z,19.52
2018-06-13T19:32:31.674Z,19.40
2018-06-13T19:35:01.829Z,19.39
2018-06-13T19:37:32.157Z,19.40
2018-06-13T19:40:02.329Z,19.43
2018-06-13T19:42:32.790Z,19.43
2018-06-13T19:45:02.763Z,19.44
2018-06-13T19:47:38.203Z,19.44
2018-06-13T19:50:08.769Z,19.41
2018-06-13T19:52:44.154Z,19.38
2018-06-13T19:55:19.425Z,19.31
2018-06-13T19:57:49.814Z,19.22
2018-06-13T20:00:20.946Z,19.12
2018-06-13T20:02:56.320Z,19.05
2018-06-13T20:05:31.510Z,18.94
2018-06-13T20:08:01.650Z,18.98
2018-06-13T20:10:31.822Z,18.87
2018-06-13T20:13:07.025Z,18.77
2018-06-13T20:15:42.128Z,18.68
2018-06-13T20:18:17.208Z,18.68
2018-06-13T20:20:48.126Z,18.64
2018-06-13T20:23:18.309Z,18.59
2018-06-13T20:25:54.122Z,18.59
2018-06-13T20:28:29.098Z,18.60
2018-06-13T20:31:03.977Z,18.57
2018-06-13T20:33:34.098Z,18.54
2018-06-13T20:36:04.316Z,18.52
2018-06-13T20:38:34.423Z,18.54
2018-06-13T20:41:04.293Z,18.51
2018-06-13T20:43:34.664Z,18.51
2018-06-13T20:46:04.740Z,18.48
2018-06-13T20:48:34.873Z,18.44
2018-06-13T20:51:05.245Z,18.38
2018-06-13T20:53:35.479Z,18.33
2018-06-13T20:56:05.680Z,18.22
2018-06-13T20:58:35.835Z,18.16
2018-06-13T21:01:06.096Z,18.14
2018-06-13T21:03:36.394Z,18.17
2018-06-13T21:06:06.523Z,18.17
2018-06-13T21:08:36.648Z,18.17
2018-06-13T21:11:06.762Z,18.14
2018-06-13T21:13:37.055Z,18.03
2018-06-13T21:16:07.404Z,17.98
2018-06-13T21:18:37.360Z,17.95
2018-06-13T21:21:07.629Z,17.90
2018-06-13T21:23:37.774Z,17.86
2018-06-13T21:26:07.943Z,17.84
2018-06-13T21:28:38.120Z,17.81
2018-06-13T21:31:08.561Z,17.84
2018-06-13T21:33:38.646Z,17.73
2018-06-13T21:36:08.670Z,17.64
2018-06-13T21:38:38.215Z,17.63
2018-06-13T21:41:08.464Z,17.55
2018-06-13T21:43:38.463Z,17.53
2018-06-13T21:46:08.524Z,17.51
2018-06-13T21:48:38.735Z,17.50
2018-06-13T21:51:08.928Z,17.50
2018-06-13T21:53:39.113Z,17.43
2018-06-13T21:56:09.203Z,17.38
2018-06-13T21:58:39.324Z,17.40
2018-06-13T22:01:09.536Z,17.39
2018-06-13T22:03:39.761Z,17.40
2018-06-13T22:06:09.980Z,17.43
2018-06-13T22:08:40.288Z,17.40
2018-06-13T22:11:10.551Z,17.20
2018-06-13T22:13:40.720Z,17.18
2018-06-13T22:16:10.862Z,17.10
2018-06-13T22:18:40.874Z,17.01
2018-06-13T22:21:11.312Z,17.02
2018-06-13T22:23:41.076Z,16.90
2018-06-13T22:26:11.584Z,16.93
2018-06-13T22:28:41.358Z,17.05
2018-06-13T22:31:11.417Z,17.08
2018-06-13T22:33:41.354Z,17.04
2018-06-13T22:36:11.226Z,17.03
2018-06-13T22:38:41.266Z,17.06
2018-06-13T22:41:11.255Z,17.07
2018-06-13T22:43:41.230Z,17.06
2018-06-13T22:46:11.215Z,17.09
2018-06-13T22:48:41.475Z,17.12
2018-06-13T22:51:11.475Z,17.15
2018-06-13T22:53:41.751Z,17.11
2018-06-13T22:56:11.962Z,17.05
2018-06-13T22:58:42.206Z,17.00
2018-06-13T23:01:13.239Z,16.99
2018-06-13T23:03:43.600Z,17.00
2018-06-13T23:06:13.877Z,17.00
2018-06-13T23:08:44.100Z,17.01
2018-06-13T23:11:14.235Z,16.99
2018-06-13T23:13:44.137Z,16.97
2018-06-13T23:16:14.060Z,16.99
2018-06-13T23:18:44.386Z,16.75
2018-06-13T23:21:14.551Z,16.64
2018-06-13T23:23:45.031Z,16.70
2018-06-13T23:26:14.890Z,16.64
2018-06-13T23:28:44.692Z,16.65
2018-06-13T23:31:14.675Z,16.53
2018-06-13T23:33:45.056Z,16.39
2018-06-13T23:36:14.986Z,16.39
2018-06-13T23:38:44.971Z,16.36
2018-06-13T23:41:14.866Z,16.29
2018-06-13T23:43:44.620Z,16.20
2018-06-13T23:46:14.840Z,16.21
2018-06-13T23:48:45.431Z,16.15
2018-06-13T23:51:15.467Z,16.11
2018-06-13T23:53:45.537Z,16.07
2018-06-13T23:56:15.841Z,16.07
2018-06-13T23:58:45.969Z,16.03
